createdAt,value
2023-03-08T00:00:25.828Z,0.73
2023-03-08T00:05:04.308Z,0.71
2023-03-08T00:09:20.293Z,0.71
2023-03-08T00:14:14.721Z,0.70
2023-03-08T00:18:31.910Z,0.71
2023-03-08T00:23:10.053Z,0.71
2023-03-08T00:27:23.085Z,0.69
2023-03-08T00:31:32.922Z,0.68
2023-03-08T00:35:52.317Z,0.67
2023-03-08T00:40:22.357Z,0.63
2023-03-08T00:44:57.751Z,0.57
2023-03-08T00:49:47.439Z,0.54
2023-03-08T00:54:34.165Z,0.53
2023-03-08T00:59:15.888Z,0.50
2023-03-08T01:03:53.278Z,0.46
2023-03-08T01:08:21.851Z,0.43
2023-03-08T01:12:25.604Z,0.36
2023-03-08T01:16:32.631Z,0.30
2023-03-08T01:20:35.582Z,0.22
2023-03-08T01:24:38.543Z,0.21
2023-03-08T01:28:41.707Z,0.20
2023-03-08T01:32:46.371Z,0.19
2023-03-08T01:36:49.320Z,0.14
2023-03-08T01:40:57.383Z,0.11
2023-03-08T01:45:02.376Z,0.09
2023-03-08T01:49:14.903Z,0.08
2023-03-08T01:53:20.344Z,0.06
2023-03-08T01:57:26.728Z,0.02
2023-03-08T02:01:30.127Z,0.00
2023-03-08T02:05:37.686Z,-0.01
2023-03-08T02:09:40.730Z,-0.02
2023-03-08T02:13:44.171Z,-0.02
2023-03-08T02:17:49.402Z,-0.06
2023-03-08T02:21:53.702Z,-0.05
2023-03-08T02:26:00.812Z,-0.07
2023-03-08T02:30:06.140Z,-0.05
2023-03-08T02:34:09.317Z,-0.08
2023-03-08T02:38:13.276Z,-0.09
2023-03-08T02:42:17.855Z,-0.11
2023-03-08T02:46:20.943Z,-0.11
2023-03-08T02:50:24.070Z,-0.11
2023-03-08T02:54:27.242Z,-0.14
2023-03-08T02:58:31.778Z,-0.16
2023-03-08T03:02:34.963Z,-0.15
2023-03-08T03:06:38.309Z,-0.18
2023-03-08T03:10:41.951Z,-0.18
2023-03-08T03:14:46.266Z,-0.17
2023-03-08T03:18:49.365Z,-0.15
2023-03-08T03:22:52.277Z,-0.15
2023-03-08T03:26:55.187Z,-0.14
2023-03-08T03:31:01.574Z,-0.10
2023-03-08T03:35:05.003Z,-0.05
2023-03-08T03:39:08.332Z,-0.02
2023-03-08T03:43:11.095Z,0.01
2023-03-08T03:47:15.385Z,0.03
2023-03-08T03:51:21.457Z,0.07
2023-03-08T03:55:24.190Z,0.09
2023-03-08T03:59:27.306Z,0.08
2023-03-08T04:03:31.466Z,0.12
2023-03-08T04:07:34.586Z,0.14
2023-03-08T04:11:39.284Z,0.15
2023-03-08T04:15:42.013Z,0.14
2023-03-08T04:19:46.313Z,0.13
2023-03-08T04:23:49.608Z,0.13
2023-03-08T04:27:52.632Z,0.11
2023-03-08T04:32:00.379Z,0.10
2023-03-08T04:36:04.837Z,0.08
2023-03-08T04:40:09.525Z,0.03
2023-03-08T04:44:12.533Z,-0.02
2023-03-08T04:48:15.576Z,-0.05
2023-03-08T04:52:19.711Z,-0.09
2023-03-08T04:56:22.726Z,-0.11
2023-03-08T05:00:25.633Z,-0.16
2023-03-08T05:04:28.462Z,-0.23
2023-03-08T05:08:32.492Z,-0.29
2023-03-08T05:12:35.550Z,-0.27
2023-03-08T05:16:38.190Z,-0.30
2023-03-08T05:20:40.998Z,-0.25
2023-03-08T05:24:46.480Z,-0.16
2023-03-08T05:28:49.323Z,-0.10
2023-03-08T05:32:52.524Z,-0.01
2023-03-08T05:36:55.786Z,0.06
2023-03-08T05:41:03.305Z,0.12
2023-03-08T05:45:07.048Z,0.16
2023-03-08T05:49:10.151Z,0.22
2023-03-08T05:53:13.291Z,0.25
2023-03-08T05:57:17.593Z,0.24
2023-03-08T06:01:23.993Z,0.23
2023-03-08T06:05:27.080Z,0.24
2023-03-08T06:09:30.436Z,0.28
2023-03-08T06:13:35.004Z,0.33
2023-03-08T06:17:37.966Z,0.44
2023-03-08T06:21:41.285Z,0.47
2023-03-08T06:25:45.616Z,0.59
2023-03-08T06:29:51.046Z,0.75
2023-03-08T06:33:54.010Z,1.33
2023-03-08T06:37:58.829Z,3.00
2023-03-08T06:42:02.936Z,4.98
2023-03-08T06:46:07.870Z,7.22
2023-03-08T06:50:12.405Z,8.92
2023-03-08T06:54:17.848Z,9.30
2023-03-08T06:58:21.366Z,10.11
2023-03-08T07:02:26.012Z,11.52
2023-03-08T07:06:29.137Z,12.57
2023-03-08T07:10:32.580Z,12.52
2023-03-08T07:14:35.733Z,10.86
2023-03-08T07:18:40.885Z,10.29
2023-03-08T07:22:46.509Z,9.22
2023-03-08T07:26:49.830Z,7.44
2023-03-08T07:30:54.151Z,7.52
2023-03-08T07:34:59.120Z,7.99
2023-03-08T07:39:02.523Z,8.63
2023-03-08T07:43:06.516Z,10.76
2023-03-08T07:47:10.321Z,11.90
2023-03-08T07:51:14.509Z,11.98
2023-03-08T07:55:17.957Z,12.12
2023-03-08T07:59:21.274Z,11.93
2023-03-08T08:03:24.294Z,9.91
2023-03-08T08:07:29.086Z,9.48
2023-03-08T08:11:32.371Z,8.40
2023-03-08T08:15:35.554Z,8.32
2023-03-08T08:19:42.600Z,6.42
2023-03-08T08:23:47.307Z,7.10
2023-03-08T08:27:52.365Z,7.37
2023-03-08T08:31:56.561Z,6.69
2023-03-08T08:36:00.331Z,6.67
2023-03-08T08:40:08.180Z,5.63
2023-03-08T08:44:11.382Z,6.01
2023-03-08T08:48:14.600Z,6.73
2023-03-08T08:52:17.504Z,8.18
2023-03-08T08:56:28.337Z,9.45
2023-03-08T09:00:32.301Z,8.42
2023-03-08T09:04:35.438Z,7.44
2023-03-08T09:08:38.644Z,6.33
2023-03-08T09:12:46.105Z,8.63
2023-03-08T09:16:49.034Z,9.45
2023-03-08T09:20:51.925Z,10.99
2023-03-08T09:24:55.231Z,10.16
2023-03-08T09:29:05.170Z,10.64
2023-03-08T09:33:08.255Z,12.24
2023-03-08T09:37:12.398Z,13.04
2023-03-08T09:41:39.717Z,10.78
2023-03-08T09:45:44.146Z,9.27
2023-03-08T09:49:52.082Z,8.68
2023-03-08T09:54:01.418Z,8.38
2023-03-08T09:58:09.242Z,7.18
2023-03-08T10:02:27.592Z,6.34
2023-03-08T10:06:35.739Z,6.31
2023-03-08T10:10:48.409Z,5.88
2023-03-08T10:14:54.133Z,5.33
2023-03-08T10:19:04.128Z,6.20
2023-03-08T10:23:15.315Z,8.14
2023-03-08T10:27:23.040Z,10.02
2023-03-08T10:31:28.284Z,9.73
2023-03-08T10:35:38.063Z,8.27
2023-03-08T10:39:53.287Z,7.35
2023-03-08T10:43:57.799Z,6.75
2023-03-08T10:48:02.233Z,7.23
2023-03-08T10:52:06.999Z,7.92
2023-03-08T10:56:25.366Z,7.46
2023-03-08T11:00:36.934Z,7.44
2023-03-08T11:04:40.157Z,7.33
2023-03-08T11:08:55.287Z,7.21
2023-03-08T11:13:16.825Z,7.61
2023-03-08T11:17:25.836Z,7.30
2023-03-08T11:21:37.850Z,7.22
2023-03-08T11:25:47.326Z,6.70
2023-03-08T11:29:55.715Z,6.20
2023-03-08T11:34:10.202Z,5.90
2023-03-08T11:38:16.789Z,5.95
2023-03-08T11:42:32.395Z,5.88
2023-03-08T11:46:47.554Z,5.69
2023-03-08T11:50:54.995Z,5.91
2023-03-08T11:55:08.945Z,6.22
2023-03-08T11:59:21.280Z,6.45
2023-03-08T12:03:28.022Z,6.11
2023-03-08T12:07:38.815Z,6.01
2023-03-08T12:11:46.263Z,5.89
2023-03-08T12:15:55.974Z,5.92
2023-03-08T12:19:59.312Z,5.76
2023-03-08T12:24:17.266Z,5.46
2023-03-08T12:28:26.305Z,5.30
2023-03-08T12:32:32.245Z,5.92
2023-03-08T12:36:40.896Z,6.48
2023-03-08T12:40:47.535Z,6.49
2023-03-08T12:44:50.470Z,6.70
2023-03-08T12:48:55.367Z,6.46
2023-03-08T12:52:59.142Z,6.25
2023-03-08T12:57:05.009Z,6.43
2023-03-08T13:01:24.220Z,6.40
2023-03-08T13:05:34.556Z,6.56
2023-03-08T13:09:47.112Z,6.50
2023-03-08T13:13:56.257Z,6.10
2023-03-08T13:18:06.379Z,6.01
2023-03-08T13:22:19.671Z,5.76
2023-03-08T13:26:49.443Z,5.39
2023-03-08T13:30:58.646Z,5.09
2023-03-08T13:35:03.011Z,4.99
2023-03-08T13:39:08.736Z,5.05
2023-03-08T13:43:15.830Z,5.33
2023-03-08T13:47:25.848Z,5.54
2023-03-08T13:51:30.942Z,5.56
2023-03-08T13:55:37.373Z,5.31
2023-03-08T13:59:49.512Z,4.88
2023-03-08T14:03:53.579Z,4.72
2023-03-08T14:08:04.372Z,4.59
2023-03-08T14:12:09.545Z,4.62
2023-03-08T14:16:26.150Z,4.64
2023-03-08T14:20:29.658Z,4.76
2023-03-08T14:24:35.567Z,4.70
2023-03-08T14:28:43.416Z,4.71
2023-03-08T14:33:04.282Z,4.61
2023-03-08T14:37:09.526Z,4.56
2023-03-08T14:41:18.496Z,4.39
2023-03-08T14:45:26.734Z,4.30
2023-03-08T14:49:30.830Z,4.22
2023-03-08T14:53:36.149Z,4.29
2023-03-08T14:57:39.196Z,4.25
2023-03-08T15:01:43.870Z,4.23
2023-03-08T15:05:47.092Z,4.18
2023-03-08T15:09:51.657Z,4.09
2023-03-08T15:13:55.016Z,3.98
2023-03-08T15:17:59.494Z,3.97
2023-03-08T15:22:02.978Z,3.84
2023-03-08T15:26:07.303Z,3.78
2023-03-08T15:30:18.978Z,3.75
2023-03-08T15:34:23.576Z,3.61
2023-03-08T15:38:26.755Z,3.50
2023-03-08T15:42:32.075Z,3.41
2023-03-08T15:46:35.503Z,3.35
2023-03-08T15:50:40.637Z,3.31
2023-03-08T15:54:47.484Z,3.23
2023-03-08T15:58:50.652Z,3.17
2023-03-08T16:02:54.365Z,3.03
2023-03-08T16:06:58.942Z,2.89
2023-03-08T16:11:04.202Z,2.71
2023-03-08T16:15:08.758Z,2.60
2023-03-08T16:19:11.864Z,2.54
2023-03-08T16:23:18.740Z,2.44
2023-03-08T16:27:24.205Z,2.32
2023-03-08T16:31:27.616Z,2.21
2023-03-08T16:35:30.518Z,2.18
2023-03-08T16:39:34.744Z,2.12
2023-03-08T16:43:46.264Z,2.09
2023-03-08T16:47:50.488Z,2.06
2023-03-08T16:51:53.604Z,2.01
2023-03-08T16:55:58.328Z,1.96
2023-03-08T17:00:01.605Z,1.89
2023-03-08T17:04:04.791Z,1.85
2023-03-08T17:08:07.883Z,1.81
2023-03-08T17:12:12.089Z,1.76
2023-03-08T17:16:15.441Z,1.72
2023-03-08T17:20:18.890Z,1.70
2023-03-08T17:24:21.881Z,1.67
2023-03-08T17:28:29.179Z,1.64
2023-03-08T17:32:33.083Z,1.61
2023-03-08T17:36:40.031Z,1.59
2023-03-08T17:40:43.069Z,1.57
2023-03-08T17:44:47.761Z,1.48
2023-03-08T17:48:53.043Z,1.43
2023-03-08T17:52:56.266Z,1.39
2023-03-08T17:56:59.171Z,1.27
2023-03-08T18:01:10.137Z,1.19
2023-03-08T18:05:15.080Z,1.14
2023-03-08T18:09:18.331Z,1.10
2023-03-08T18:13:21.310Z,1.06
2023-03-08T18:17:25.913Z,1.04
2023-03-08T18:21:31.117Z,1.02
2023-03-08T18:25:34.360Z,1.01
2023-03-08T18:29:40.317Z,0.98
2023-03-08T18:33:44.320Z,0.98
2023-03-08T18:37:47.511Z,0.93
2023-03-08T18:41:50.318Z,0.91
2023-03-08T18:45:54.013Z,0.91
2023-03-08T18:49:58.481Z,0.87
2023-03-08T18:54:01.941Z,0.88
2023-03-08T18:58:04.968Z,0.85
2023-03-08T19:02:11.337Z,0.83
2023-03-08T19:06:16.244Z,0.78
2023-03-08T19:10:19.620Z,0.76
2023-03-08T19:14:22.625Z,0.77
2023-03-08T19:18:27.112Z,0.76
2023-03-08T19:22:31.657Z,0.71
2023-03-08T19:26:38.238Z,0.71
2023-03-08T19:30:41.612Z,0.72
2023-03-08T19:34:45.011Z,0.70
2023-03-08T19:38:51.026Z,0.74
2023-03-08T19:42:54.243Z,0.70
2023-03-08T19:46:57.214Z,0.65
2023-03-08T19:51:00.441Z,0.65
2023-03-08T19:55:05.371Z,0.66
2023-03-08T19:59:08.340Z,0.66
2023-03-08T20:03:11.348Z,0.64
2023-03-08T20:07:16.805Z,0.64
2023-03-08T20:11:21.498Z,0.64
2023-03-08T20:15:24.541Z,0.64
2023-03-08T20:19:27.452Z,0.61
2023-03-08T20:23:32.053Z,0.61
2023-03-08T20:27:38.003Z,0.58
2023-03-08T20:31:41.152Z,0.57
2023-03-08T20:35:44.403Z,0.57
2023-03-08T20:39:51.590Z,0.56
2023-03-08T20:43:56.568Z,0.54
2023-03-08T20:48:00.006Z,0.55
2023-03-08T20:52:02.860Z,0.54
2023-03-08T20:56:07.154Z,0.57
2023-03-08T21:00:13.266Z,0.52
2023-03-08T21:04:16.087Z,0.56
2023-03-08T21:08:20.872Z,0.51
2023-03-08T21:12:24.236Z,0.50
2023-03-08T21:16:29.899Z,0.49
2023-03-08T21:20:36.734Z,0.49
2023-03-08T21:24:39.808Z,0.48
2023-03-08T21:28:42.771Z,0.47
2023-03-08T21:32:47.192Z,0.47
2023-03-08T21:36:50.651Z,0.46
2023-03-08T21:40:53.671Z,0.49
2023-03-08T21:44:56.858Z,0.45
2023-03-08T21:49:01.239Z,0.42
2023-03-08T21:53:04.464Z,0.43
2023-03-08T21:57:07.596Z,0.40
2023-03-08T22:01:21.410Z,0.39
2023-03-08T22:05:25.932Z,0.42
2023-03-08T22:09:29.511Z,0.37
2023-03-08T22:13:32.520Z,0.38
2023-03-08T22:17:35.598Z,0.36
2023-03-08T22:21:39.960Z,0.32
2023-03-08T22:25:43.046Z,0.31
2023-03-08T22:29:46.003Z,0.28
2023-03-08T22:33:49.672Z,0.25
2023-03-08T22:37:53.960Z,0.23
2023-03-08T22:41:56.894Z,0.20
2023-03-08T22:46:10.533Z,0.18
2023-03-08T22:50:14.204Z,0.19
2023-03-08T22:54:20.097Z,0.19
2023-03-08T22:58:23.471Z,0.24
2023-03-08T23:02:27.986Z,0.22
2023-03-08T23:06:32.148Z,0.21
2023-03-08T23:10:37.678Z,0.23
2023-03-08T23:14:41.022Z,0.19
2023-03-08T23:18:44.765Z,0.18
2023-03-08T23:22:47.519Z,0.17
2023-03-08T23:26:51.581Z,0.18
2023-03-08T23:30:54.415Z,0.16
2023-03-08T23:34:57.413Z,0.12
2023-03-08T23:39:02.177Z,0.13
2023-03-08T23:43:09.602Z,0.12
2023-03-08T23:47:12.590Z,0.11
2023-03-08T23:51:17.535Z,0.13
2023-03-08T23:55:20.857Z,0.14
2023-03-08T23:59:25.689Z,0.14
